Aérodrome :
LOGIN :

S'inscrire | Disclaimer

   EN    FR    IT 

 










Légende :    VFR   VFR Marginal   IFR   IFR Intensif   IFR Très Intensif
Visi : 
Plafond : 
>= 8 km
>= 3000ft
5 à 8 km
1000 à 3000 ft
1500m à 5 km
500 à 1000 ft
800 à 1500m
200 à 500 ft
< 800m
< 200 ft
Symboles :   Orages  Brouillard  Fortes neiges  Fortes précipitations  Vent > 20 kt
SIGMETs :   Divers  Orages  Givrage  Turbulence  Onde Orograph.  Cendres Volcan.







- Altitude de l'aérodrome : 468 ft
- Code IATA : GRO


LEGE - Girona Costa Brava

DERNIER METAR :
  • 221030Z 21005KT 160V300 9999 FEW050 23/10 Q1018

METARs EXPIRÉS :
  • 221000Z 20005KT 120V270 9999 FEW050 22/09 Q1018
  • 220930Z 19003KT 9999 FEW050 22/10 Q1018
  • 220900Z 19004KT 120V230 9999 FEW050 21/10 Q1018
  • 220830Z 17002KT CAVOK 21/12 Q1018
  • 220800Z 00000KT CAVOK 19/13 Q1018
  • 220730Z 00000KT CAVOK 18/13 Q1018

TAF TAF LEGE
Valide du 22 à 06h jusqu'au 23 à 06h UTC


220500Z 2206/2306 VRB03KT 9999 FEW025 TX25/2213Z TN10/2206Z
BECMG 2208/2210 18010KT
PROB30
TEMPO 2213/2218 18015G25KT FEW050TCU
BECMG 2218/2220 VRB04KT
Pas de NOTAMs connus pour ce terrain.



MET'MAP, la Météo Aéronautique d'un coup d'oeil ! - Copyright ORBIFLY Décembre 2007 - Disclaimer

ORBIFLY MET'MAP TEAM :

Programmation & Développement : Alexandra Zaïnal
Conception & Développement : Baudouin d'Aumeries
Co-Programmation & Développement : Marc-Olivier Méhu
Soutien technique & logistique : Manuel Goepfert

Contact : metmap@orbifly.com




SOURCES & CREDITS :

   NOAA